Ana Sayfa
METAR-TAF:

METAR-TAF

Havaalanları :

Camp Mabry

Austin, Teksas, Amerika Birleşik Devletleri

Enlem: 30-19N, Boylam: 097-46W, yükseklik: 200 m

Güncel hava durumu gözlemi

Rapor saat 08:06 UTC de 20 dakika önce yapıldı.
Rüzgar güney/güneydoğudan 5 kt
Sıcaklık 20°C
Nem 88%
Basınç 1012 hPa
Görüş mesafesi: 4.8 km
300 ft yükseklikte çok bulutlu
Pus

METAR: KATT 030806Z AUTO 16005KT 3SM BR OVC003 20/18 A2988 RMK AO2 T02000183

Saat: 03:26 (08:26 UTC)


TAF: eksik

4.000'den fazla havaalanı için hava durumu gözlemleri ve tahminleri (METAR ve TAF raporları).

Kullanılabilir istasyonlar harita üzerinde sarı ve kırmızı noktalarla gösterilir.

İstasyonun adını görmek için fareyi noktanın üzerinde gezdirin.

Sonrasında hava gözlem ve tahminlerini görmek için tıklayın.

Haritayı değiştirmek için: yaklaştırmak için siyah artı işaretli yeşil düğmeye ve uzaklaştırmak için de eksi işaretli düğmeye hızla tıklayın; bitişik haritalar için yeşil okları kullanın.


METAR-TAF: